sensor_id;sensor_type;location;lat;lon;timestamp;pressure;altitude;pressure_sealevel;temperature;humidity
66524;BME280;53350;52.210;5.160;2023-04-29T00:00:39;101549.56;;;11.91;77.01
66524;BME280;53350;52.210;5.160;2023-04-29T00:03:06;101553.88;;;11.97;76.76
66524;BME280;53350;52.210;5.160;2023-04-29T00:05:33;101553.84;;;11.98;76.43
66524;BME280;53350;52.210;5.160;2023-04-29T00:08:01;101556.44;;;12.00;76.40
66524;BME280;53350;52.210;5.160;2023-04-29T00:10:29;101563.34;;;11.96;76.31
66524;BME280;53350;52.210;5.160;2023-04-29T00:12:55;101565.91;;;11.90;76.21
66524;BME280;53350;52.210;5.160;2023-04-29T00:15:22;101566.84;;;11.86;76.42
66524;BME280;53350;52.210;5.160;2023-04-29T00:17:48;101559.94;;;11.83;76.46
66524;BME280;53350;52.210;5.160;2023-04-29T00:20:15;101560.81;;;11.81;76.51
66524;BME280;53350;52.210;5.160;2023-04-29T00:22:41;101565.13;;;11.76;76.60
66524;BME280;53350;52.210;5.160;2023-04-29T00:25:09;101570.31;;;11.74;76.59
66524;BME280;53350;52.210;5.160;2023-04-29T00:27:36;101578.03;;;11.76;76.48
66524;BME280;53350;52.210;5.160;2023-04-29T00:30:04;101578.06;;;11.71;76.53
66524;BME280;53350;52.210;5.160;2023-04-29T00:32:31;101574.63;;;11.74;76.66
66524;BME280;53350;52.210;5.160;2023-04-29T00:34:57;101584.94;;;11.75;76.52
66524;BME280;53350;52.210;5.160;2023-04-29T00:37:24;101580.63;;;11.80;76.39
66524;BME280;53350;52.210;5.160;2023-04-29T00:39:50;101586.63;;;11.82;76.19
66524;BME280;53350;52.210;5.160;2023-04-29T00:42:18;101587.47;;;11.84;76.16
66524;BME280;53350;52.210;5.160;2023-04-29T00:44:45;101589.19;;;11.86;75.99
66524;BME280;53350;52.210;5.160;2023-04-29T00:47:12;101590.03;;;11.84;75.89
66524;BME280;53350;52.210;5.160;2023-04-29T00:49:38;101585.81;;;11.73;75.66
66524;BME280;53350;52.210;5.160;2023-04-29T00:52:05;101596.13;;;11.71;76.25
66524;BME280;53350;52.210;5.160;2023-04-29T00:54:33;101596.19;;;11.63;76.23
66524;BME280;53350;52.210;5.160;2023-04-29T00:57:00;101598.81;;;11.57;76.48
66524;BME280;53350;52.210;5.160;2023-04-29T00:59:29;101603.94;;;11.54;76.59
66524;BME280;53350;52.210;5.160;2023-04-29T01:01:57;101607.41;;;11.53;76.78
66524;BME280;53350;52.210;5.160;2023-04-29T01:04:24;101601.44;;;11.42;77.09
66524;BME280;53350;52.210;5.160;2023-04-29T01:06:56;101603.16;;;11.46;76.67
66524;BME280;53350;52.210;5.160;2023-04-29T01:09:31;101606.56;;;11.49;76.64
66524;BME280;53350;52.210;5.160;2023-04-29T01:12:10;101610.00;;;11.55;76.80
66524;BME280;53350;52.210;5.160;2023-04-29T01:14:44;101610.00;;;11.53;76.71
66524;BME280;53350;52.210;5.160;2023-04-29T01:17:17;101610.81;;;11.60;76.72
66524;BME280;53350;52.210;5.160;2023-04-29T01:19:47;101604.78;;;11.62;76.50
66524;BME280;53350;52.210;5.160;2023-04-29T01:22:15;101608.22;;;11.66;76.45
66524;BME280;53350;52.210;5.160;2023-04-29T01:24:44;101616.81;;;11.68;76.30
66524;BME280;53350;52.210;5.160;2023-04-29T01:27:20;101619.38;;;11.70;76.32
66524;BME280;53350;52.210;5.160;2023-04-29T01:29:54;101617.66;;;11.69;76.17
66524;BME280;53350;52.210;5.160;2023-04-29T01:32:33;101628.88;;;11.60;76.30
66524;BME280;53350;52.210;5.160;2023-04-29T01:35:08;101627.19;;;11.56;76.17
66524;BME280;53350;52.210;5.160;2023-04-29T01:37:40;101629.75;;;11.53;76.46
66524;BME280;53350;52.210;5.160;2023-04-29T01:40:19;101627.22;;;11.46;76.98
66524;BME280;53350;52.210;5.160;2023-04-29T01:42:50;101625.47;;;11.52;76.75
66524;BME280;53350;52.210;5.160;2023-04-29T01:45:21;101628.91;;;11.51;76.66
66524;BME280;53350;52.210;5.160;2023-04-29T01:47:52;101636.63;;;11.57;76.58
66524;BME280;53350;52.210;5.160;2023-04-29T01:50:20;101632.34;;;11.59;76.45
66524;BME280;53350;52.210;5.160;2023-04-29T01:52:46;101634.91;;;11.59;76.32
66524;BME280;53350;52.210;5.160;2023-04-29T01:55:13;101639.22;;;11.63;76.41
66524;BME280;53350;52.210;5.160;2023-04-29T01:57:41;101639.19;;;11.66;76.43
66524;BME280;53350;52.210;5.160;2023-04-29T02:00:08;101640.91;;;11.72;76.25
66524;BME280;53350;52.210;5.160;2023-04-29T02:02:35;101632.25;;;11.74;75.98
66524;BME280;53350;52.210;5.160;2023-04-29T02:05:02;101641.78;;;11.64;76.03
66524;BME280;53350;52.210;5.160;2023-04-29T02:07:28;101636.56;;;11.77;75.80
66524;BME280;53350;52.210;5.160;2023-04-29T02:09:55;101641.72;;;11.77;75.80
66524;BME280;53350;52.210;5.160;2023-04-29T02:12:21;101645.16;;;11.76;75.72
66524;BME280;53350;52.210;5.160;2023-04-29T02:14:52;101653.81;;;11.72;75.78
66524;BME280;53350;52.210;5.160;2023-04-29T02:17:18;101648.63;;;11.72;75.70
66524;BME280;53350;52.210;5.160;2023-04-29T02:19:45;101655.50;;;11.73;75.86
66524;BME280;53350;52.210;5.160;2023-04-29T02:22:11;101654.63;;;11.75;75.78
66524;BME280;53350;52.210;5.160;2023-04-29T02:24:39;101652.91;;;11.76;75.78
66524;BME280;53350;52.210;5.160;2023-04-29T02:27:05;101657.19;;;11.81;75.67
66524;BME280;53350;52.210;5.160;2023-04-29T02:29:32;101662.31;;;11.84;75.63
66524;BME280;53350;52.210;5.160;2023-04-29T02:31:59;101664.03;;;11.87;75.60
66524;BME280;53350;52.210;5.160;2023-04-29T02:34:26;101670.09;;;11.88;75.66
66524;BME280;53350;52.210;5.160;2023-04-29T02:36:52;101673.53;;;11.87;75.45
66524;BME280;53350;52.210;5.160;2023-04-29T02:39:19;101674.38;;;11.86;75.51
66524;BME280;53350;52.210;5.160;2023-04-29T02:41:45;101680.38;;;11.84;75.43
66524;BME280;53350;52.210;5.160;2023-04-29T02:44:13;101680.44;;;11.75;75.71
66524;BME280;53350;52.210;5.160;2023-04-29T02:46:40;101677.88;;;11.69;75.77
66524;BME280;53350;52.210;5.160;2023-04-29T02:49:11;101686.47;;;11.74;75.71
66524;BME280;53350;52.210;5.160;2023-04-29T02:51:37;101698.50;;;11.74;75.79
66524;BME280;53350;52.210;5.160;2023-04-29T02:54:05;101689.94;;;11.72;76.07
66524;BME280;53350;52.210;5.160;2023-04-29T02:56:32;101687.34;;;11.67;76.18
66524;BME280;53350;52.210;5.160;2023-04-29T02:58:58;101685.63;;;11.69;76.13
66524;BME280;53350;52.210;5.160;2023-04-29T03:01:25;101695.06;;;11.69;76.19
66524;BME280;53350;52.210;5.160;2023-04-29T03:03:51;101700.22;;;11.70;76.40
66524;BME280;53350;52.210;5.160;2023-04-29T03:06:20;101704.53;;;11.73;76.21
66524;BME280;53350;52.210;5.160;2023-04-29T03:08:46;101705.41;;;11.75;76.30
66524;BME280;53350;52.210;5.160;2023-04-29T03:11:12;101709.69;;;11.80;76.26
66524;BME280;53350;52.210;5.160;2023-04-29T03:13:39;101710.53;;;11.82;76.22
66524;BME280;53350;52.210;5.160;2023-04-29T03:16:06;101709.66;;;11.77;76.12
66524;BME280;53350;52.210;5.160;2023-04-29T03:18:32;101711.41;;;11.77;76.07
66524;BME280;53350;52.210;5.160;2023-04-29T03:20:59;101715.72;;;11.78;76.38
66524;BME280;53350;52.210;5.160;2023-04-29T03:23:26;101718.31;;;11.76;76.08
66524;BME280;53350;52.210;5.160;2023-04-29T03:25:53;101722.59;;;11.79;76.21
66524;BME280;53350;52.210;5.160;2023-04-29T03:28:19;101719.13;;;11.81;76.27
66524;BME280;53350;52.210;5.160;2023-04-29T03:30:46;101723.44;;;11.82;76.09
66524;BME280;53350;52.210;5.160;2023-04-29T03:33:12;101726.00;;;11.84;76.11
66524;BME280;53350;52.210;5.160;2023-04-29T03:35:39;101726.88;;;11.88;75.89
66524;BME280;53350;52.210;5.160;2023-04-29T03:38:05;101735.47;;;11.85;75.74
66524;BME280;53350;52.210;5.160;2023-04-29T03:40:33;101726.03;;;11.81;75.71
66524;BME280;53350;52.210;5.160;2023-04-29T03:43:00;101726.03;;;11.81;75.87
66524;BME280;53350;52.210;5.160;2023-04-29T03:45:26;101730.34;;;11.74;75.98
66524;BME280;53350;52.210;5.160;2023-04-29T03:47:53;101740.66;;;11.77;76.14
66524;BME280;53350;52.210;5.160;2023-04-29T03:50:19;101745.81;;;11.74;75.92
66524;BME280;53350;52.210;5.160;2023-04-29T03:52:46;101735.50;;;11.80;75.83
66524;BME280;53350;52.210;5.160;2023-04-29T03:55:12;101738.09;;;11.80;75.76
66524;BME280;53350;52.210;5.160;2023-04-29T03:57:40;101740.66;;;11.83;75.76
66524;BME280;53350;52.210;5.160;2023-04-29T04:00:07;101744.94;;;11.84;75.79
66524;BME280;53350;52.210;5.160;2023-04-29T04:02:34;101750.13;;;11.86;75.63
66524;BME280;53350;52.210;5.160;2023-04-29T04:05:00;101758.72;;;11.87;75.60
66524;BME280;53350;52.210;5.160;2023-04-29T04:07:27;101752.66;;;11.84;75.51
66524;BME280;53350;52.210;5.160;2023-04-29T04:09:53;101758.72;;;11.82;75.61
66524;BME280;53350;52.210;5.160;2023-04-29T04:12:20;101759.59;;;11.78;75.78
66524;BME280;53350;52.210;5.160;2023-04-29T04:14:47;101760.44;;;11.80;75.83
66524;BME280;53350;52.210;5.160;2023-04-29T04:17:14;101767.31;;;11.81;75.96
66524;BME280;53350;52.210;5.160;2023-04-29T04:19:40;101772.50;;;11.81;76.04
66524;BME280;53350;52.210;5.160;2023-04-29T04:22:07;101775.06;;;11.84;76.02
66524;BME280;53350;52.210;5.160;2023-04-29T04:24:33;101775.06;;;11.86;76.00
66524;BME280;53350;52.210;5.160;2023-04-29T04:26:59;101763.03;;;11.86;75.92
66524;BME280;53350;52.210;5.160;2023-04-29T04:29:26;101769.91;;;11.82;75.78
66524;BME280;53350;52.210;5.160;2023-04-29T04:31:54;101775.06;;;11.79;75.51
66524;BME280;53350;52.210;5.160;2023-04-29T04:34:20;101772.50;;;11.78;75.84
66524;BME280;53350;52.210;5.160;2023-04-29T04:36:46;101777.69;;;11.73;76.06
66524;BME280;53350;52.210;5.160;2023-04-29T04:39:13;101781.97;;;11.71;76.10
66524;BME280;53350;52.210;5.160;2023-04-29T04:41:39;101790.59;;;11.72;76.18
66524;BME280;53350;52.210;5.160;2023-04-29T04:44:06;101795.75;;;11.75;76.29
66524;BME280;53350;52.210;5.160;2023-04-29T04:46:32;101800.88;;;11.81;76.33
66524;BME280;53350;52.210;5.160;2023-04-29T04:49:00;101801.75;;;11.80;76.22
66524;BME280;53350;52.210;5.160;2023-04-29T04:51:27;101796.56;;;11.78;76.10
66524;BME280;53350;52.210;5.160;2023-04-29T04:53:55;101806.91;;;11.78;76.45
66524;BME280;53350;52.210;5.160;2023-04-29T04:56:21;101807.78;;;11.82;76.66
66524;BME280;53350;52.210;5.160;2023-04-29T04:58:47;101813.78;;;11.82;76.42
66524;BME280;53350;52.210;5.160;2023-04-29T05:01:14;101812.03;;;11.84;76.53
66524;BME280;53350;52.210;5.160;2023-04-29T05:03:40;101819.81;;;11.88;76.58
66524;BME280;53350;52.210;5.160;2023-04-29T05:06:08;101812.03;;;11.84;76.76
66524;BME280;53350;52.210;5.160;2023-04-29T05:08:34;101823.25;;;11.83;77.10
66524;BME280;53350;52.210;5.160;2023-04-29T05:11:01;101821.56;;;11.73;77.48
66524;BME280;53350;52.210;5.160;2023-04-29T05:13:27;101828.41;;;11.76;77.20
66524;BME280;53350;52.210;5.160;2023-04-29T05:15:54;101826.69;;;11.79;77.48
66524;BME280;53350;52.210;5.160;2023-04-29T05:18:20;101818.94;;;11.82;77.43
66524;BME280;53350;52.210;5.160;2023-04-29T05:20:46;101827.56;;;11.88;77.24
66524;BME280;53350;52.210;5.160;2023-04-29T05:23:14;101838.72;;;11.90;77.20
66524;BME280;53350;52.210;5.160;2023-04-29T05:25:41;101838.72;;;11.88;77.14
66524;BME280;53350;52.210;5.160;2023-04-29T05:28:07;101845.63;;;11.89;76.95
66524;BME280;53350;52.210;5.160;2023-04-29T05:30:34;101841.31;;;11.90;76.89
66524;BME280;53350;52.210;5.160;2023-04-29T05:33:01;101846.47;;;11.90;76.77
66524;BME280;53350;52.210;5.160;2023-04-29T05:35:28;101851.63;;;11.93;76.73
66524;BME280;53350;52.210;5.160;2023-04-29T05:37:55;101848.19;;;11.92;76.81
66524;BME280;53350;52.210;5.160;2023-04-29T05:40:23;101864.56;;;11.94;76.65
66524;BME280;53350;52.210;5.160;2023-04-29T05:42:49;101858.56;;;11.94;76.65
66524;BME280;53350;52.210;5.160;2023-04-29T05:45:16;101855.97;;;11.94;76.86
66524;BME280;53350;52.210;5.160;2023-04-29T05:47:42;101863.72;;;11.94;76.62
66524;BME280;53350;52.210;5.160;2023-04-29T05:50:09;101866.28;;;11.92;76.52
66524;BME280;53350;52.210;5.160;2023-04-29T05:52:36;101867.16;;;11.94;76.28
66524;BME280;53350;52.210;5.160;2023-04-29T05:55:02;101873.19;;;11.98;76.18
66524;BME280;53350;52.210;5.160;2023-04-29T05:57:30;101875.75;;;12.03;76.02
66524;BME280;53350;52.210;5.160;2023-04-29T05:59:57;101877.47;;;12.07;75.71
66524;BME280;53350;52.210;5.160;2023-04-29T06:02:24;101881.75;;;12.08;75.41
66524;BME280;53350;52.210;5.160;2023-04-29T06:04:50;101887.81;;;12.05;75.39
66524;BME280;53350;52.210;5.160;2023-04-29T06:07:17;101890.41;;;12.04;75.44
66524;BME280;53350;52.210;5.160;2023-04-29T06:09:43;101892.09;;;12.03;75.28
66524;BME280;53350;52.210;5.160;2023-04-29T06:12:10;101899.84;;;12.02;75.32
66524;BME280;53350;52.210;5.160;2023-04-29T06:14:38;101899.84;;;12.02;75.28
66524;BME280;53350;52.210;5.160;2023-04-29T06:17:05;101902.44;;;11.95;74.62
66524;BME280;53350;52.210;5.160;2023-04-29T06:19:31;101909.34;;;11.95;74.26
66524;BME280;53350;52.210;5.160;2023-04-29T06:21:58;101915.34;;;12.02;74.56
66524;BME280;53350;52.210;5.160;2023-04-29T06:24:24;101913.63;;;12.10;74.12
66524;BME280;53350;52.210;5.160;2023-04-29T06:26:50;101915.31;;;12.18;73.54
66524;BME280;53350;52.210;5.160;2023-04-29T06:29:17;101918.75;;;12.19;73.32
66524;BME280;53350;52.210;5.160;2023-04-29T06:31:45;101926.50;;;12.22;72.99
66524;BME280;53350;52.210;5.160;2023-04-29T06:34:11;101922.22;;;12.20;73.56
66524;BME280;53350;52.210;5.160;2023-04-29T06:36:38;101929.09;;;12.22;73.14
66524;BME280;53350;52.210;5.160;2023-04-29T06:39:05;101931.69;;;12.27;73.29
66524;BME280;53350;52.210;5.160;2023-04-29T06:41:32;101933.41;;;12.34;73.51
66524;BME280;53350;52.210;5.160;2023-04-29T06:43:58;101945.41;;;12.40;73.50
66524;BME280;53350;52.210;5.160;2023-04-29T06:46:25;101950.59;;;12.41;73.87
66524;BME280;53350;52.210;5.160;2023-04-29T06:48:53;101954.03;;;12.48;73.58
66524;BME280;53350;52.210;5.160;2023-04-29T06:51:19;101946.28;;;12.46;74.06
66524;BME280;53350;52.210;5.160;2023-04-29T06:53:46;101952.31;;;12.48;73.66
66524;BME280;53350;52.210;5.160;2023-04-29T06:56:12;101955.75;;;12.50;73.84
66524;BME280;53350;52.210;5.160;2023-04-29T06:58:39;101950.56;;;12.53;73.22
66524;BME280;53350;52.210;5.160;2023-04-29T07:01:05;101960.88;;;12.57;72.98
66524;BME280;53350;52.210;5.160;2023-04-29T07:03:32;101957.44;;;12.59;72.63
66524;BME280;53350;52.210;5.160;2023-04-29T07:06:00;101961.75;;;12.59;72.90
66524;BME280;53350;52.210;5.160;2023-04-29T07:08:27;101966.03;;;12.63;72.80
66524;BME280;53350;52.210;5.160;2023-04-29T07:10:54;101966.88;;;12.69;72.92
66524;BME280;53350;52.210;5.160;2023-04-29T07:13:21;101979.78;;;12.77;72.41
66524;BME280;53350;52.210;5.160;2023-04-29T07:15:47;101984.13;;;12.72;71.71
66524;BME280;53350;52.210;5.160;2023-04-29T07:18:13;101991.88;;;12.69;71.29
66524;BME280;53350;52.210;5.160;2023-04-29T07:20:40;101983.25;;;12.67;71.22
66524;BME280;53350;52.210;5.160;2023-04-29T07:23:09;101988.44;;;12.65;70.77
66524;BME280;53350;52.210;5.160;2023-04-29T07:25:35;101994.47;;;12.67;70.68
66524;BME280;53350;52.210;5.160;2023-04-29T07:28:02;102000.50;;;12.66;70.67
66524;BME280;53350;52.210;5.160;2023-04-29T07:30:29;102003.94;;;12.70;70.47
66524;BME280;53350;52.210;5.160;2023-04-29T07:32:55;102004.81;;;12.63;70.21
66524;BME280;53350;52.210;5.160;2023-04-29T07:35:22;102005.66;;;12.71;69.63
66524;BME280;53350;52.210;5.160;2023-04-29T07:37:48;102008.25;;;12.71;70.11
66524;BME280;53350;52.210;5.160;2023-04-29T07:40:16;102004.84;;;12.64;69.92
66524;BME280;53350;52.210;5.160;2023-04-29T07:42:43;102006.53;;;12.65;69.86
66524;BME280;53350;52.210;5.160;2023-04-29T07:45:09;102021.16;;;12.74;69.78
66524;BME280;53350;52.210;5.160;2023-04-29T07:47:37;102011.66;;;12.82;68.40
66524;BME280;53350;52.210;5.160;2023-04-29T07:50:05;102018.56;;;12.79;68.62
66524;BME280;53350;52.210;5.160;2023-04-29T07:52:31;102026.31;;;12.77;68.79
66524;BME280;53350;52.210;5.160;2023-04-29T07:54:58;102020.31;;;12.74;68.49
66524;BME280;53350;52.210;5.160;2023-04-29T07:57:25;102024.63;;;12.78;68.38
66524;BME280;53350;52.210;5.160;2023-04-29T07:59:52;102031.50;;;12.85;68.36
66524;BME280;53350;52.210;5.160;2023-04-29T08:02:19;102025.41;;;12.97;68.02
66524;BME280;53350;52.210;5.160;2023-04-29T08:04:45;102031.41;;;13.08;68.09
66524;BME280;53350;52.210;5.160;2023-04-29T08:07:12;102042.59;;;13.15;68.52
66524;BME280;53350;52.210;5.160;2023-04-29T08:09:38;102033.06;;;13.37;67.90
66524;BME280;53350;52.210;5.160;2023-04-29T08:12:05;102038.97;;;13.61;67.21
66524;BME280;53350;52.210;5.160;2023-04-29T08:14:33;102040.59;;;13.76;67.02
66524;BME280;53350;52.210;5.160;2023-04-29T08:16:59;102045.69;;;13.93;66.67
66524;BME280;53350;52.210;5.160;2023-04-29T08:19:26;102047.38;;;13.98;65.21
66524;BME280;53350;52.210;5.160;2023-04-29T08:21:52;102037.69;;;14.22;64.99
66524;BME280;53350;52.210;5.160;2023-04-29T08:24:19;102044.53;;;14.27;64.40
66524;BME280;53350;52.210;5.160;2023-04-29T08:26:46;102042.78;;;14.34;64.31
66524;BME280;53350;52.210;5.160;2023-04-29T08:29:12;102048.72;;;14.47;64.45
66524;BME280;53350;52.210;5.160;2023-04-29T08:31:41;102042.59;;;14.53;63.76
66524;BME280;53350;52.210;5.160;2023-04-29T08:34:08;102045.19;;;14.53;63.32
66524;BME280;53350;52.210;5.160;2023-04-29T08:36:34;102050.31;;;14.60;62.97
66524;BME280;53350;52.210;5.160;2023-04-29T08:39:02;102049.44;;;14.65;62.34
66524;BME280;53350;52.210;5.160;2023-04-29T08:41:30;102050.16;;;14.79;61.68
66524;BME280;53350;52.210;5.160;2023-04-29T08:43:58;102057.88;;;14.85;59.79
66524;BME280;53350;52.210;5.160;2023-04-29T08:46:25;102055.19;;;14.93;59.97
66524;BME280;53350;52.210;5.160;2023-04-29T08:48:53;102054.28;;;14.97;59.15
66524;BME280;53350;52.210;5.160;2023-04-29T08:51:20;102048.16;;;15.03;58.49
66524;BME280;53350;52.210;5.160;2023-04-29T08:53:47;102059.31;;;15.12;58.75
66524;BME280;53350;52.210;5.160;2023-04-29T08:56:15;102059.19;;;15.20;58.28
66524;BME280;53350;52.210;5.160;2023-04-29T08:58:43;102073.03;;;15.19;57.69
66524;BME280;53350;52.210;5.160;2023-04-29T09:01:10;102074.72;;;15.23;57.76
66524;BME280;53350;52.210;5.160;2023-04-29T09:03:42;102076.38;;;15.30;56.95
66524;BME280;53350;52.210;5.160;2023-04-29T09:06:11;102077.31;;;15.23;57.00
66524;BME280;53350;52.210;5.160;2023-04-29T09:08:38;102082.50;;;15.23;56.56
66524;BME280;53350;52.210;5.160;2023-04-29T09:11:07;102084.19;;;15.29;56.93
66524;BME280;53350;52.210;5.160;2023-04-29T09:13:34;102079.78;;;15.36;57.22
66524;BME280;53350;52.210;5.160;2023-04-29T09:16:01;102085.75;;;15.42;56.85
66524;BME280;53350;52.210;5.160;2023-04-29T09:18:44;102085.66;;;15.52;56.35
66524;BME280;53350;52.210;5.160;2023-04-29T09:21:14;102083.03;;;15.53;55.56
66524;BME280;53350;52.210;5.160;2023-04-29T09:23:41;102082.13;;;15.56;55.53
66524;BME280;53350;52.210;5.160;2023-04-29T09:26:07;102078.63;;;15.60;55.93
66524;BME280;53350;52.210;5.160;2023-04-29T09:28:34;102100.13;;;15.70;55.41
66524;BME280;53350;52.210;5.160;2023-04-29T09:31:00;102081.88;;;15.73;54.32
66524;BME280;53350;52.210;5.160;2023-04-29T09:33:27;102085.53;;;15.59;55.06
66524;BME280;53350;52.210;5.160;2023-04-29T09:35:55;102087.06;;;15.76;54.93
66524;BME280;53350;52.210;5.160;2023-04-29T09:38:23;102084.41;;;15.82;53.63
66524;BME280;53350;52.210;5.160;2023-04-29T09:40:50;102095.66;;;15.81;53.98
66524;BME280;53350;52.210;5.160;2023-04-29T09:43:17;102094.78;;;15.84;52.85
66524;BME280;53350;52.210;5.160;2023-04-29T09:45:46;102090.34;;;15.92;52.35
66524;BME280;53350;52.210;5.160;2023-04-29T09:48:14;102105.94;;;15.89;52.35
66524;BME280;53350;52.210;5.160;2023-04-29T09:50:42;102104.19;;;15.92;52.60
66524;BME280;53350;52.210;5.160;2023-04-29T09:53:10;102091.06;;;16.00;52.54
66524;BME280;53350;52.210;5.160;2023-04-29T09:55:57;102103.22;;;15.99;53.56
66524;BME280;53350;52.210;5.160;2023-04-29T09:58:27;102096.06;;;16.14;52.81
66524;BME280;53350;52.210;5.160;2023-04-29T10:00:54;102097.63;;;16.24;52.58
66524;BME280;53350;52.210;5.160;2023-04-29T10:03:22;102089.66;;;16.35;51.05
66524;BME280;53350;52.210;5.160;2023-04-29T10:05:48;102093.09;;;16.37;50.91
66524;BME280;53350;52.210;5.160;2023-04-29T10:08:15;102106.16;;;16.34;51.00
66524;BME280;53350;52.210;5.160;2023-04-29T10:10:43;102094.22;;;16.19;49.66
66524;BME280;53350;52.210;5.160;2023-04-29T10:13:11;102108.09;;;16.20;50.27
66524;BME280;53350;52.210;5.160;2023-04-29T10:15:40;102101.13;;;16.22;51.24
66524;BME280;53350;52.210;5.160;2023-04-29T10:18:13;102103.47;;;16.39;49.36
66524;BME280;53350;52.210;5.160;2023-04-29T10:20:45;102100.84;;;16.40;50.04
66524;BME280;53350;52.210;5.160;2023-04-29T10:23:13;102106.94;;;16.38;49.49
66524;BME280;53350;52.210;5.160;2023-04-29T10:25:40;102106.03;;;16.40;49.61
66524;BME280;53350;52.210;5.160;2023-04-29T10:28:12;102114.66;;;16.44;49.52
66524;BME280;53350;52.210;5.160;2023-04-29T10:30:43;102097.19;;;16.50;49.85
66524;BME280;53350;52.210;5.160;2023-04-29T10:33:10;102087.53;;;16.59;49.36
66524;BME280;53350;52.210;5.160;2023-04-29T10:35:37;102100.41;;;16.66;48.59
66524;BME280;53350;52.210;5.160;2023-04-29T10:38:09;102097.91;;;16.60;49.10
66524;BME280;53350;52.210;5.160;2023-04-29T10:40:40;102097.09;;;16.57;49.62
66524;BME280;53350;52.210;5.160;2023-04-29T10:43:10;102091.78;;;16.64;49.36
66524;BME280;53350;52.210;5.160;2023-04-29T10:45:38;102095.09;;;16.71;49.63
66524;BME280;53350;52.210;5.160;2023-04-29T10:48:12;102094.06;;;16.80;48.97
66524;BME280;53350;52.210;5.160;2023-04-29T10:53:21;102097.41;;;16.90;48.27
66524;BME280;53350;52.210;5.160;2023-04-29T10:55:52;102100.91;;;16.85;48.59
66524;BME280;53350;52.210;5.160;2023-04-29T10:58:41;102106.13;;;16.85;48.52
66524;BME280;53350;52.210;5.160;2023-04-29T11:01:09;102099.34;;;16.77;49.24
66524;BME280;53350;52.210;5.160;2023-04-29T11:03:49;102094.94;;;16.82;49.24
66524;BME280;53350;52.210;5.160;2023-04-29T11:06:19;102090.56;;;16.82;48.54
66524;BME280;53350;52.210;5.160;2023-04-29T11:08:45;102098.69;;;16.64;49.14
66524;BME280;53350;52.210;5.160;2023-04-29T11:11:12;102097.84;;;16.63;49.51
66524;BME280;53350;52.210;5.160;2023-04-29T11:13:45;102102.25;;;16.58;48.75
66524;BME280;53350;52.210;5.160;2023-04-29T11:16:12;102097.16;;;16.54;48.88
66524;BME280;53350;52.210;5.160;2023-04-29T11:19:03;102115.16;;;16.66;47.21
66524;BME280;53350;52.210;5.160;2023-04-29T11:21:29;102102.19;;;16.64;46.92
66524;BME280;53350;52.210;5.160;2023-04-29T11:23:57;102111.63;;;16.70;47.79
66524;BME280;53350;52.210;5.160;2023-04-29T11:26:23;102106.19;;;16.82;47.16
66524;BME280;53350;52.210;5.160;2023-04-29T11:28:51;102118.50;;;16.73;45.78
66524;BME280;53350;52.210;5.160;2023-04-29T11:31:19;102109.81;;;16.74;46.14
66524;BME280;53350;52.210;5.160;2023-04-29T11:33:45;102103.88;;;16.65;46.06
66524;BME280;53350;52.210;5.160;2023-04-29T11:36:12;102108.06;;;16.74;46.62
66524;BME280;53350;52.210;5.160;2023-04-29T11:38:39;102104.34;;;16.91;46.45
66524;BME280;53350;52.210;5.160;2023-04-29T11:41:06;102109.34;;;17.01;45.66
66524;BME280;53350;52.210;5.160;2023-04-29T11:43:32;102113.53;;;17.09;46.34
66524;BME280;53350;52.210;5.160;2023-04-29T11:46:00;102124.00;;;17.06;45.49
66524;BME280;53350;52.210;5.160;2023-04-29T11:48:26;102112.66;;;17.10;45.92
66524;BME280;53350;52.210;5.160;2023-04-29T11:50:56;102113.47;;;17.12;45.06
66524;BME280;53350;52.210;5.160;2023-04-29T11:53:25;102109.13;;;17.14;45.52
66524;BME280;53350;52.210;5.160;2023-04-29T11:55:52;102113.41;;;17.16;44.27
66524;BME280;53350;52.210;5.160;2023-04-29T11:58:19;102117.81;;;17.13;44.41
66524;BME280;53350;52.210;5.160;2023-04-29T12:00:46;102122.06;;;17.17;44.32
66524;BME280;53350;52.210;5.160;2023-04-29T12:03:15;102113.34;;;17.19;44.19
66524;BME280;53350;52.210;5.160;2023-04-29T12:05:45;102109.84;;;17.22;44.76
66524;BME280;53350;52.210;5.160;2023-04-29T12:08:12;102114.03;;;17.28;43.81
66524;BME280;53350;52.210;5.160;2023-04-29T12:10:38;102097.59;;;17.26;43.15
66524;BME280;53350;52.210;5.160;2023-04-29T12:13:05;102115.03;;;17.22;43.76
66524;BME280;53350;52.210;5.160;2023-04-29T12:15:31;102116.66;;;17.26;44.19
66524;BME280;53350;52.210;5.160;2023-04-29T12:17:59;102112.06;;;17.39;44.79
66524;BME280;53350;52.210;5.160;2023-04-29T12:20:27;102117.34;;;17.36;43.87
66524;BME280;53350;52.210;5.160;2023-04-29T12:22:54;102109.38;;;17.44;44.52
66524;BME280;53350;52.210;5.160;2023-04-29T12:25:24;102109.53;;;17.36;43.52
66524;BME280;53350;52.210;5.160;2023-04-29T12:27:58;102116.53;;;17.34;44.24
66524;BME280;53350;52.210;5.160;2023-04-29T12:30:25;102107.72;;;17.41;43.26
66524;BME280;53350;52.210;5.160;2023-04-29T12:32:51;102114.09;;;17.67;43.68
66524;BME280;53350;52.210;5.160;2023-04-29T12:35:18;102115.66;;;17.76;43.58
66524;BME280;53350;52.210;5.160;2023-04-29T12:37:50;102111.22;;;17.79;42.85
66524;BME280;53350;52.210;5.160;2023-04-29T12:40:16;102110.19;;;17.86;42.67
66524;BME280;53350;52.210;5.160;2023-04-29T12:42:44;102121.44;;;17.90;41.98
66524;BME280;53350;52.210;5.160;2023-04-29T12:45:25;102125.00;;;17.86;41.45
66524;BME280;53350;52.210;5.160;2023-04-29T12:47:51;102127.63;;;17.83;41.52
66524;BME280;53350;52.210;5.160;2023-04-29T12:50:18;102125.31;;;17.70;40.82
66524;BME280;53350;52.210;5.160;2023-04-29T12:52:45;102121.13;;;17.63;40.90
66524;BME280;53350;52.210;5.160;2023-04-29T12:55:13;102128.31;;;17.52;40.58